sensor_id;sensor_type;location;lat;lon;timestamp;pressure;altitude;pressure_sealevel;temperature;humidity
62025;BME280;47978;49.118;12.146;2023-03-19T00:01:01;97219.28;;;5.04;86.86
62025;BME280;47978;49.118;12.146;2023-03-19T00:05:03;97212.69;;;5.05;86.13
62025;BME280;47978;49.118;12.146;2023-03-19T00:09:05;97217.09;;;4.96;87.07
62025;BME280;47978;49.118;12.146;2023-03-19T00:13:08;97211.06;;;5.04;86.88
62025;BME280;47978;49.118;12.146;2023-03-19T00:17:10;97218.47;;;4.93;87.38
62025;BME280;47978;49.118;12.146;2023-03-19T00:21:11;97211.38;;;4.77;88.65
62025;BME280;47978;49.118;12.146;2023-03-19T00:25:13;97211.09;;;4.79;88.80
62025;BME280;47978;49.118;12.146;2023-03-19T00:29:16;97202.59;;;4.80;88.51
62025;BME280;47978;49.118;12.146;2023-03-19T00:33:17;97213.56;;;4.85;88.40
62025;BME280;47978;49.118;12.146;2023-03-19T00:37:18;97213.56;;;4.80;88.87
62025;BME280;47978;49.118;12.146;2023-03-19T00:41:20;97211.38;;;4.77;89.05
62025;BME280;47978;49.118;12.146;2023-03-19T00:45:23;97220.94;;;4.80;88.59
62025;BME280;47978;49.118;12.146;2023-03-19T00:49:24;97217.66;;;4.78;88.39
62025;BME280;47978;49.118;12.146;2023-03-19T00:53:26;97202.88;;;4.73;88.06
62025;BME280;47978;49.118;12.146;2023-03-19T00:57:27;97206.19;;;4.76;88.00
62025;BME280;47978;49.118;12.146;2023-03-19T01:01:30;97197.66;;;4.72;87.58
62025;BME280;47978;49.118;12.146;2023-03-19T01:05:32;97191.66;;;4.70;87.08
62025;BME280;47978;49.118;12.146;2023-03-19T01:09:34;97201.78;;;4.69;87.37
62025;BME280;47978;49.118;12.146;2023-03-19T01:13:36;97206.72;;;4.67;87.39
62025;BME280;47978;49.118;12.146;2023-03-19T01:17:39;97216.56;;;4.63;87.66
62025;BME280;47978;49.118;12.146;2023-03-19T01:21:40;97208.91;;;4.70;87.08
62025;BME280;47978;49.118;12.146;2023-03-19T01:25:41;97208.38;;;4.68;87.73
62025;BME280;47978;49.118;12.146;2023-03-19T01:29:43;97197.97;;;4.60;88.04
62025;BME280;47978;49.118;12.146;2023-03-19T01:33:46;97200.16;;;4.63;87.77
62025;BME280;47978;49.118;12.146;2023-03-19T01:37:47;97201.25;;;4.62;88.07
62025;BME280;47978;49.118;12.146;2023-03-19T01:41:48;97200.72;;;4.50;88.00
62025;BME280;47978;49.118;12.146;2023-03-19T01:45:50;97197.69;;;4.46;87.91
62025;BME280;47978;49.118;12.146;2023-03-19T01:49:54;97203.44;;;4.55;87.71
62025;BME280;47978;49.118;12.146;2023-03-19T01:53:57;97196.06;;;4.45;87.97
62025;BME280;47978;49.118;12.146;2023-03-19T01:58:00;97200.72;;;4.45;87.94
62025;BME280;47978;49.118;12.146;2023-03-19T02:02:02;97200.97;;;4.43;87.66
62025;BME280;47978;49.118;12.146;2023-03-19T02:06:07;97203.19;;;4.41;87.59
62025;BME280;47978;49.118;12.146;2023-03-19T02:10:11;97201.50;;;4.35;87.82
62025;BME280;47978;49.118;12.146;2023-03-19T02:14:13;97204.28;;;4.30;88.05
62025;BME280;47978;49.118;12.146;2023-03-19T02:18:14;97206.19;;;4.24;88.05
62025;BME280;47978;49.118;12.146;2023-03-19T02:22:20;97222.31;;;4.26;88.02
62025;BME280;47978;49.118;12.146;2023-03-19T02:26:24;97220.41;;;4.16;87.90
62025;BME280;47978;49.118;12.146;2023-03-19T02:30:27;97217.38;;;4.18;87.63
62025;BME280;47978;49.118;12.146;2023-03-19T02:34:34;97228.06;;;4.14;87.89
62025;BME280;47978;49.118;12.146;2023-03-19T02:38:35;97226.66;;;4.06;87.87
62025;BME280;47978;49.118;12.146;2023-03-19T02:42:39;97236.53;;;4.08;87.82
62025;BME280;47978;49.118;12.146;2023-03-19T02:46:41;97225.03;;;4.05;88.18
62025;BME280;47978;49.118;12.146;2023-03-19T02:50:42;97220.66;;;4.10;87.91
62025;BME280;47978;49.118;12.146;2023-03-19T02:54:44;97209.69;;;3.99;88.03
62025;BME280;47978;49.118;12.146;2023-03-19T02:58:46;97202.88;;;4.02;88.32
62025;BME280;47978;49.118;12.146;2023-03-19T03:02:48;97204.53;;;4.08;88.65
62025;BME280;47978;49.118;12.146;2023-03-19T03:06:49;97209.72;;;4.04;88.84
62025;BME280;47978;49.118;12.146;2023-03-19T03:10:50;97210.50;;;3.95;88.72
62025;BME280;47978;49.118;12.146;2023-03-19T03:14:53;97218.72;;;4.00;88.64
62025;BME280;47978;49.118;12.146;2023-03-19T03:18:55;97229.94;;;3.98;88.96
62025;BME280;47978;49.118;12.146;2023-03-19T03:22:56;97229.94;;;3.98;88.16
62025;BME280;47978;49.118;12.146;2023-03-19T03:26:57;97229.34;;;3.86;88.92
62025;BME280;47978;49.118;12.146;2023-03-19T03:31:00;97227.75;;;3.90;88.76
62025;BME280;47978;49.118;12.146;2023-03-19T03:35:02;97232.94;;;3.92;88.75
62025;BME280;47978;49.118;12.146;2023-03-19T03:39:03;97239.22;;;3.87;88.60
62025;BME280;47978;49.118;12.146;2023-03-19T03:43:04;97251.53;;;3.85;88.97
62025;BME280;47978;49.118;12.146;2023-03-19T03:47:07;97259.44;;;3.86;89.02
62025;BME280;47978;49.118;12.146;2023-03-19T03:51:09;97256.97;;;3.90;89.17
62025;BME280;47978;49.118;12.146;2023-03-19T03:55:10;97261.94;;;3.93;89.23
62025;BME280;47978;49.118;12.146;2023-03-19T03:59:12;97262.47;;;3.95;89.24
62025;BME280;47978;49.118;12.146;2023-03-19T04:03:14;97258.66;;;3.96;89.32
62025;BME280;47978;49.118;12.146;2023-03-19T04:07:16;97267.94;;;3.95;89.52
62025;BME280;47978;49.118;12.146;2023-03-19T04:11:17;97268.53;;;4.02;89.36
62025;BME280;47978;49.118;12.146;2023-03-19T04:15:19;97274.53;;;4.04;89.43
62025;BME280;47978;49.118;12.146;2023-03-19T04:19:21;97266.88;;;4.01;90.16
62025;BME280;47978;49.118;12.146;2023-03-19T04:23:23;97266.88;;;4.06;89.56
62025;BME280;47978;49.118;12.146;2023-03-19T04:27:24;97273.72;;;4.09;89.66
62025;BME280;47978;49.118;12.146;2023-03-19T04:31:26;97270.75;;;4.10;89.80
62025;BME280;47978;49.118;12.146;2023-03-19T04:35:29;97261.44;;;4.11;89.76
62025;BME280;47978;49.118;12.146;2023-03-19T04:39:30;97263.06;;;4.12;89.68
62025;BME280;47978;49.118;12.146;2023-03-19T04:43:31;97269.66;;;4.16;89.91
62025;BME280;47978;49.118;12.146;2023-03-19T04:47:33;97281.13;;;4.18;90.05
62025;BME280;47978;49.118;12.146;2023-03-19T04:51:36;97285.53;;;4.19;89.99
62025;BME280;47978;49.118;12.146;2023-03-19T04:55:37;97294.56;;;4.25;90.15
62025;BME280;47978;49.118;12.146;2023-03-19T04:59:39;97283.91;;;4.28;90.37
62025;BME280;47978;49.118;12.146;2023-03-19T05:03:40;97283.63;;;4.35;90.16
62025;BME280;47978;49.118;12.146;2023-03-19T05:07:43;97289.13;;;4.40;90.23
62025;BME280;47978;49.118;12.146;2023-03-19T05:11:44;97296.53;;;4.50;90.09
62025;BME280;47978;49.118;12.146;2023-03-19T05:15:46;97292.44;;;4.63;90.05
62025;BME280;47978;49.118;12.146;2023-03-19T05:19:47;97298.75;;;4.58;90.24
62025;BME280;47978;49.118;12.146;2023-03-19T05:23:50;97302.56;;;4.57;90.50
62025;BME280;47978;49.118;12.146;2023-03-19T05:27:52;97309.44;;;4.65;90.30
62025;BME280;47978;49.118;12.146;2023-03-19T05:31:53;97309.16;;;4.71;90.23
62025;BME280;47978;49.118;12.146;2023-03-19T05:35:54;97308.31;;;4.71;90.60
62025;BME280;47978;49.118;12.146;2023-03-19T05:39:59;97305.31;;;4.83;90.34
62025;BME280;47978;49.118;12.146;2023-03-19T05:44:01;97305.03;;;4.89;90.58
62025;BME280;47978;49.118;12.146;2023-03-19T05:48:02;97311.63;;;4.99;90.76
62025;BME280;47978;49.118;12.146;2023-03-19T05:52:04;97315.47;;;5.08;90.85
62025;BME280;47978;49.118;12.146;2023-03-19T05:56:07;97322.03;;;5.17;90.86
62025;BME280;47978;49.118;12.146;2023-03-19T06:00:09;97320.94;;;5.18;90.40
62025;BME280;47978;49.118;12.146;2023-03-19T06:04:10;97334.66;;;5.18;91.13
62025;BME280;47978;49.118;12.146;2023-03-19T06:08:12;97353.00;;;5.23;90.41
62025;BME280;47978;49.118;12.146;2023-03-19T06:12:14;97349.69;;;5.26;90.20
62025;BME280;47978;49.118;12.146;2023-03-19T06:16:16;97357.38;;;5.18;89.77
62025;BME280;47978;49.118;12.146;2023-03-19T06:20:17;97374.91;;;5.28;89.62
62025;BME280;47978;49.118;12.146;2023-03-19T06:24:19;97369.16;;;5.39;89.56
62025;BME280;47978;49.118;12.146;2023-03-19T06:28:21;97356.81;;;5.52;89.34
62025;BME280;47978;49.118;12.146;2023-03-19T06:32:23;97348.53;;;5.68;89.35
62025;BME280;47978;49.118;12.146;2023-03-19T06:36:24;97344.16;;;5.61;90.73
62025;BME280;47978;49.118;12.146;2023-03-19T06:40:26;97343.03;;;5.73;91.23
62025;BME280;47978;49.118;12.146;2023-03-19T06:44:28;97339.69;;;5.86;92.02
62025;BME280;47978;49.118;12.146;2023-03-19T06:48:30;97355.59;;;6.10;91.65
62025;BME280;47978;49.118;12.146;2023-03-19T06:52:31;97377.44;;;6.30;90.71
62025;BME280;47978;49.118;12.146;2023-03-19T06:56:33;97379.09;;;6.31;87.34
62025;BME280;47978;49.118;12.146;2023-03-19T07:00:35;97387.63;;;6.29;85.65
62025;BME280;47978;49.118;12.146;2023-03-19T07:04:37;97403.81;;;6.31;85.59
62025;BME280;47978;49.118;12.146;2023-03-19T07:08:38;97409.03;;;6.27;86.14
62025;BME280;47978;49.118;12.146;2023-03-19T07:12:40;97401.88;;;6.31;85.70
62025;BME280;47978;49.118;12.146;2023-03-19T07:16:43;97404.09;;;6.29;85.48
62025;BME280;47978;49.118;12.146;2023-03-19T07:20:44;97391.44;;;6.34;85.39
62025;BME280;47978;49.118;12.146;2023-03-19T07:24:46;97410.63;;;6.44;85.52
62025;BME280;47978;49.118;12.146;2023-03-19T07:28:47;97418.22;;;6.62;84.75
62025;BME280;47978;49.118;12.146;2023-03-19T07:32:50;97430.44;;;6.90;83.86
62025;BME280;47978;49.118;12.146;2023-03-19T07:36:52;97418.63;;;6.90;84.29
62025;BME280;47978;49.118;12.146;2023-03-19T07:40:53;97429.72;;;7.14;84.05
62025;BME280;47978;49.118;12.146;2023-03-19T07:45:02;97440.59;;;7.34;83.60
62025;BME280;47978;49.118;12.146;2023-03-19T07:49:05;97449.41;;;7.65;82.48
62025;BME280;47978;49.118;12.146;2023-03-19T07:53:07;97447.28;;;7.92;81.28
62025;BME280;47978;49.118;12.146;2023-03-19T07:57:09;97441.47;;;7.93;80.86
62025;BME280;47978;49.118;12.146;2023-03-19T08:01:10;97443.78;;;8.10;79.81
62025;BME280;47978;49.118;12.146;2023-03-19T08:05:13;97444.78;;;8.19;79.35
62025;BME280;47978;49.118;12.146;2023-03-19T08:09:14;97442.38;;;8.37;78.99
62025;BME280;47978;49.118;12.146;2023-03-19T08:13:15;97440.25;;;8.58;78.38
62025;BME280;47978;49.118;12.146;2023-03-19T08:17:17;97439.75;;;8.93;76.54
62025;BME280;47978;49.118;12.146;2023-03-19T08:21:19;97436.66;;;9.19;75.71
62025;BME280;47978;49.118;12.146;2023-03-19T08:25:21;97448.88;;;9.51;75.04
62025;BME280;47978;49.118;12.146;2023-03-19T08:29:22;97451.31;;;9.71;74.56
62025;BME280;47978;49.118;12.146;2023-03-19T08:33:24;97448.28;;;9.86;73.54
62025;BME280;47978;49.118;12.146;2023-03-19T08:37:27;97451.84;;;9.87;72.37
62025;BME280;47978;49.118;12.146;2023-03-19T08:41:28;97445.63;;;9.95;72.32
62025;BME280;47978;49.118;12.146;2023-03-19T08:45:30;97453.97;;;10.23;71.40
62025;BME280;47978;49.118;12.146;2023-03-19T08:49:31;97442.06;;;10.69;69.61
62025;BME280;47978;49.118;12.146;2023-03-19T08:53:34;97443.94;;;11.10;69.54
62025;BME280;47978;49.118;12.146;2023-03-19T08:57:36;97442.31;;;11.45;67.86
62025;BME280;47978;49.118;12.146;2023-03-19T09:01:37;97448.28;;;11.61;67.52
62025;BME280;47978;49.118;12.146;2023-03-19T09:05:38;97446.16;;;11.58;67.35
62025;BME280;47978;49.118;12.146;2023-03-19T09:09:41;97460.13;;;11.75;66.92
62025;BME280;47978;49.118;12.146;2023-03-19T09:13:43;97464.03;;;11.88;66.53
62025;BME280;47978;49.118;12.146;2023-03-19T09:17:44;97466.91;;;12.05;65.18
62025;BME280;47978;49.118;12.146;2023-03-19T09:21:46;97462.84;;;12.11;65.31
62025;BME280;47978;49.118;12.146;2023-03-19T09:25:49;97461.47;;;12.23;64.72
62025;BME280;47978;49.118;12.146;2023-03-19T09:29:50;97465.25;;;12.27;64.72
62025;BME280;47978;49.118;12.146;2023-03-19T09:33:52;97469.25;;;12.52;65.33
62025;BME280;47978;49.118;12.146;2023-03-19T09:37:53;97479.31;;;12.70;64.92
62025;BME280;47978;49.118;12.146;2023-03-19T09:41:59;97496.88;;;12.97;62.39
62025;BME280;47978;49.118;12.146;2023-03-19T09:46:05;97488.78;;;13.18;62.86
62025;BME280;47978;49.118;12.146;2023-03-19T09:50:12;97483.59;;;13.34;61.87
62025;BME280;47978;49.118;12.146;2023-03-19T09:54:18;97487.84;;;13.31;60.31
62025;BME280;47978;49.118;12.146;2023-03-19T09:58:24;97477.22;;;13.33;60.24
62025;BME280;47978;49.118;12.146;2023-03-19T10:02:32;97478.41;;;13.58;60.79
62025;BME280;47978;49.118;12.146;2023-03-19T10:06:38;97483.97;;;13.76;60.11
62025;BME280;47978;49.118;12.146;2023-03-19T10:10:49;97495.38;;;13.65;59.44
62025;BME280;47978;49.118;12.146;2023-03-19T10:15:08;97510.28;;;13.61;59.73
62025;BME280;47978;49.118;12.146;2023-03-19T10:19:12;97513.88;;;13.04;61.34
62025;BME280;47978;49.118;12.146;2023-03-19T10:23:25;97511.38;;;12.94;62.01
62025;BME280;47978;49.118;12.146;2023-03-19T10:27:29;97506.59;;;12.77;63.18
62025;BME280;47978;49.118;12.146;2023-03-19T10:31:36;97509.09;;;12.87;64.23
62025;BME280;47978;49.118;12.146;2023-03-19T10:35:39;97506.78;;;12.89;65.27
62025;BME280;47978;49.118;12.146;2023-03-19T10:39:42;97500.28;;;12.94;66.35
62025;BME280;47978;49.118;12.146;2023-03-19T10:43:45;97508.75;;;12.89;67.16
62025;BME280;47978;49.118;12.146;2023-03-19T10:47:48;97509.44;;;12.94;69.17
62025;BME280;47978;49.118;12.146;2023-03-19T10:51:51;97501.88;;;12.86;68.56
62025;BME280;47978;49.118;12.146;2023-03-19T10:55:59;97493.00;;;12.67;68.81
62025;BME280;47978;49.118;12.146;2023-03-19T11:00:01;97491.75;;;12.81;69.68
62025;BME280;47978;49.118;12.146;2023-03-19T11:04:12;97483.66;;;13.02;69.67
62025;BME280;47978;49.118;12.146;2023-03-19T11:08:15;97479.97;;;13.24;69.14
62025;BME280;47978;49.118;12.146;2023-03-19T11:12:35;97484.41;;;13.34;68.02
62025;BME280;47978;49.118;12.146;2023-03-19T11:16:50;97464.81;;;13.48;68.49
62025;BME280;47978;49.118;12.146;2023-03-19T11:20:54;97469.41;;;13.35;68.44
62025;BME280;47978;49.118;12.146;2023-03-19T11:24:56;97461.88;;;13.53;70.07
62025;BME280;47978;49.118;12.146;2023-03-19T11:29:00;97455.50;;;13.79;68.57
62025;BME280;47978;49.118;12.146;2023-03-19T11:33:05;97460.72;;;13.98;68.05
62025;BME280;47978;49.118;12.146;2023-03-19T11:37:13;97471.66;;;14.03;68.43
62025;BME280;47978;49.118;12.146;2023-03-19T11:41:19;97468.88;;;14.11;66.65
62025;BME280;47978;49.118;12.146;2023-03-19T11:45:26;97475.09;;;14.08;67.05
62025;BME280;47978;49.118;12.146;2023-03-19T11:49:44;97480.97;;;14.15;66.73
62025;BME280;47978;49.118;12.146;2023-03-19T11:53:55;97477.88;;;14.08;65.43
62025;BME280;47978;49.118;12.146;2023-03-19T11:58:04;97470.66;;;14.25;65.77
62025;BME280;47978;49.118;12.146;2023-03-19T12:02:24;97465.22;;;14.54;64.60
62025;BME280;47978;49.118;12.146;2023-03-19T12:06:32;97460.75;;;14.62;65.34
62025;BME280;47978;49.118;12.146;2023-03-19T12:10:43;97452.16;;;14.76;64.71
62025;BME280;47978;49.118;12.146;2023-03-19T12:14:53;97449.06;;;14.77;63.78
62025;BME280;47978;49.118;12.146;2023-03-19T12:23:19;97460.16;;;14.86;62.75
62025;BME280;47978;49.118;12.146;2023-03-19T12:27:30;97444.84;;;15.01;62.59
62025;BME280;47978;49.118;12.146;2023-03-19T12:31:38;97440.28;;;15.26;62.73
62025;BME280;47978;49.118;12.146;2023-03-19T12:35:44;97432.66;;;15.35;62.43
62025;BME280;47978;49.118;12.146;2023-03-19T12:39:51;97437.19;;;15.69;60.86
62025;BME280;47978;49.118;12.146;2023-03-19T12:43:56;97430.50;;;15.83;60.14
62025;BME280;47978;49.118;12.146;2023-03-19T12:48:01;97435.19;;;15.70;60.18
62025;BME280;47978;49.118;12.146;2023-03-19T12:52:06;97428.66;;;15.66;60.38
62025;BME280;47978;49.118;12.146;2023-03-19T12:56:10;97426.81;;;15.49;60.23
62025;BME280;47978;49.118;12.146;2023-03-19T13:00:15;97425.34;;;15.72;60.62
62025;BME280;47978;49.118;12.146;2023-03-19T13:04:20;97417.16;;;15.88;60.37
62025;BME280;47978;49.118;12.146;2023-03-19T13:08:23;97410.41;;;16.23;60.10
62025;BME280;47978;49.118;12.146;2023-03-19T13:12:27;97410.28;;;16.19;58.79
62025;BME280;47978;49.118;12.146;2023-03-19T13:16:33;97413.75;;;16.16;58.53
62025;BME280;47978;49.118;12.146;2023-03-19T13:20:44;97404.19;;;16.05;59.06
62025;BME280;47978;49.118;12.146;2023-03-19T13:24:50;97405.38;;;16.16;57.42
62025;BME280;47978;49.118;12.146;2023-03-19T13:28:53;97396.25;;;16.52;57.35
62025;BME280;47978;49.118;12.146;2023-03-19T13:33:01;97396.03;;;16.45;56.56
62025;BME280;47978;49.118;12.146;2023-03-19T13:37:03;97398.66;;;16.17;56.46
62025;BME280;47978;49.118;12.146;2023-03-19T13:45:28;97386.34;;;15.85;57.02
62025;BME280;47978;49.118;12.146;2023-03-19T13:49:33;97390.34;;;15.96;57.52
62025;BME280;47978;49.118;12.146;2023-03-19T13:53:38;97380.69;;;15.93;57.63
62025;BME280;47978;49.118;12.146;2023-03-19T13:57:40;97378.16;;;16.01;56.71
62025;BME280;47978;49.118;12.146;2023-03-19T14:01:53;97375.75;;;16.24;56.59
62025;BME280;47978;49.118;12.146;2023-03-19T14:05:56;97374.59;;;16.12;56.46
62025;BME280;47978;49.118;12.146;2023-03-19T14:10:07;97372.38;;;16.06;55.82
62025;BME280;47978;49.118;12.146;2023-03-19T14:14:14;97368.16;;;16.00;57.03
62025;BME280;47978;49.118;12.146;2023-03-19T14:18:16;97362.13;;;16.10;57.47
62025;BME280;47978;49.118;12.146;2023-03-19T14:22:20;97364.59;;;16.11;56.15
62025;BME280;47978;49.118;12.146;2023-03-19T14:26:29;97361.00;;;16.23;55.02
62025;BME280;47978;49.118;12.146;2023-03-19T14:30:32;97360.31;;;16.26;54.50
62025;BME280;47978;49.118;12.146;2023-03-19T14:34:36;97363.91;;;16.39;53.21
62025;BME280;47978;49.118;12.146;2023-03-19T14:38:42;97359.75;;;16.57;53.71
62025;BME280;47978;49.118;12.146;2023-03-19T14:42:52;97355.72;;;16.79;53.41
62025;BME280;47978;49.118;12.146;2023-03-19T14:47:02;97361.97;;;16.52;53.84
62025;BME280;47978;49.118;12.146;2023-03-19T14:51:10;97357.19;;;16.52;53.33
62025;BME280;47978;49.118;12.146;2023-03-19T14:55:20;97360.56;;;16.46;52.47
62025;BME280;47978;49.118;12.146;2023-03-19T14:59:22;97358.66;;;16.13;53.09
62025;BME280;47978;49.118;12.146;2023-03-19T15:03:27;97361.13;;;15.81;54.99
62025;BME280;47978;49.118;12.146;2023-03-19T15:07:31;97366.22;;;15.79;55.61
62025;BME280;47978;49.118;12.146;2023-03-19T15:11:37;97360.56;;;15.88;56.32
62025;BME280;47978;49.118;12.146;2023-03-19T15:15:48;97354.34;;;16.03;55.54
62025;BME280;47978;49.118;12.146;2023-03-19T15:19:54;97355.25;;;15.95;55.03
62025;BME280;47978;49.118;12.146;2023-03-19T15:23:56;97356.50;;;15.85;55.52
62025;BME280;47978;49.118;12.146;2023-03-19T15:28:06;97359.50;;;15.80;55.83
62025;BME280;47978;49.118;12.146;2023-03-19T15:32:08;97353.41;;;15.66;56.99
62025;BME280;47978;49.118;12.146;2023-03-19T15:36:11;97350.50;;;15.41;56.26
62025;BME280;47978;49.118;12.146;2023-03-19T15:40:15;97349.28;;;15.30;57.71
62025;BME280;47978;49.118;12.146;2023-03-19T15:44:21;97343.53;;;15.14;57.55
62025;BME280;47978;49.118;12.146;2023-03-19T15:48:24;97346.50;;;15.09;58.48
62025;BME280;47978;49.118;12.146;2023-03-19T15:52:27;97345.13;;;15.15;58.43
62025;BME280;47978;49.118;12.146;2023-03-19T15:56:30;97346.16;;;15.11;58.79
62025;BME280;47978;49.118;12.146;2023-03-19T16:00:35;97339.50;;;15.24;58.13
62025;BME280;47978;49.118;12.146;2023-03-19T16:04:43;97343.22;;;15.28;58.15
62025;BME280;47978;49.118;12.146;2023-03-19T16:09:14;97355.88;;;15.25;57.51
62025;BME280;47978;49.118;12.146;2023-03-19T16:17:37;97359.00;;;15.03;58.49
62025;BME280;47978;49.118;12.146;2023-03-19T16:21:42;97364.53;;;14.82;59.61
62025;BME280;47978;49.118;12.146;2023-03-19T16:25:43;97368.22;;;14.65;61.87
62025;BME280;47978;49.118;12.146;2023-03-19T16:29:46;97375.50;;;14.49;63.82
62025;BME280;47978;49.118;12.146;2023-03-19T16:33:49;97375.09;;;14.29;65.23
62025;BME280;47978;49.118;12.146;2023-03-19T16:37:51;97373.00;;;14.17;66.41
62025;BME280;47978;49.118;12.146;2023-03-19T16:46:13;97378.97;;;13.90;67.50
62025;BME280;47978;49.118;12.146;2023-03-19T16:50:17;97381.63;;;13.60;68.58
62025;BME280;47978;49.118;12.146;2023-03-19T16:54:18;97378.41;;;13.41;69.69
62025;BME280;47978;49.118;12.146;2023-03-19T16:58:23;97379.66;;;13.17;70.86
62025;BME280;47978;49.118;12.146;2023-03-19T17:02:26;97380.44;;;13.00;71.54
62025;BME280;47978;49.118;12.146;2023-03-19T17:06:29;97396.41;;;12.77;71.97
62025;BME280;47978;49.118;12.146;2023-03-19T17:10:30;97402.38;;;12.45;73.18
62025;BME280;47978;49.118;12.146;2023-03-19T17:14:32;97408.31;;;12.29;73.68
62025;BME280;47978;49.118;12.146;2023-03-19T17:18:34;97405.75;;;12.02;74.62
62025;BME280;47978;49.118;12.146;2023-03-19T17:22:38;97409.97;;;11.99;75.04
62025;BME280;47978;49.118;12.146;2023-03-19T17:26:39;97422.34;;;11.93;75.44
62025;BME280;47978;49.118;12.146;2023-03-19T17:30:41;97420.47;;;11.66;76.58
62025;BME280;47978;49.118;12.146;2023-03-19T17:34:42;97415.97;;;11.47;77.40
62025;BME280;47978;49.118;12.146;2023-03-19T17:38:45;97416.25;;;11.46;77.63
62025;BME280;47978;49.118;12.146;2023-03-19T17:42:47;97421.22;;;11.35;77.83
62025;BME280;47978;49.118;12.146;2023-03-19T17:46:49;97424.66;;;11.18;78.70
62025;BME280;47978;49.118;12.146;2023-03-19T17:50:51;97420.56;;;11.16;78.70
62025;BME280;47978;49.118;12.146;2023-03-19T17:54:56;97433.72;;;10.96;79.37
62025;BME280;47978;49.118;12.146;2023-03-19T17:58:57;97430.88;;;10.88;79.76
62025;BME280;47978;49.118;12.146;2023-03-19T18:02:59;97435.09;;;10.85;79.83
62025;BME280;47978;49.118;12.146;2023-03-19T18:07:00;97438.78;;;10.67;80.37
62025;BME280;47978;49.118;12.146;2023-03-19T18:11:03;97435.81;;;10.49;80.30
62025;BME280;47978;49.118;12.146;2023-03-19T18:15:05;97451.19;;;10.42;79.97
62025;BME280;47978;49.118;12.146;2023-03-19T18:19:10;97452.66;;;10.20;80.40
62025;BME280;47978;49.118;12.146;2023-03-19T18:23:15;97452.91;;;9.91;81.30
62025;BME280;47978;49.118;12.146;2023-03-19T18:27:18;97457.94;;;9.70;82.48
62025;BME280;47978;49.118;12.146;2023-03-19T18:31:21;97459.31;;;9.54;82.19
62025;BME280;47978;49.118;12.146;2023-03-19T18:35:23;97457.22;;;9.27;82.96
62025;BME280;47978;49.118;12.146;2023-03-19T18:39:26;97465.50;;;9.27;82.79
62025;BME280;47978;49.118;12.146;2023-03-19T18:43:29;97474.38;;;9.23;82.55
62025;BME280;47978;49.118;12.146;2023-03-19T18:47:31;97471.97;;;8.98;83.13
62025;BME280;47978;49.118;12.146;2023-03-19T18:51:32;97473.59;;;8.80;83.98
62025;BME280;47978;49.118;12.146;2023-03-19T18:55:34;97480.81;;;8.76;83.73
62025;BME280;47978;49.118;12.146;2023-03-19T18:59:37;97483.16;;;8.64;84.08
62025;BME280;47978;49.118;12.146;2023-03-19T19:03:38;97491.44;;;8.40;84.71
62025;BME280;47978;49.118;12.146;2023-03-19T19:07:40;97500.31;;;8.31;85.10
62025;BME280;47978;49.118;12.146;2023-03-19T19:11:42;97500.47;;;8.11;85.98
62025;BME280;47978;49.118;12.146;2023-03-19T19:15:46;97500.44;;;7.87;86.74
62025;BME280;47978;49.118;12.146;2023-03-19T19:19:47;97502.63;;;7.90;86.45
62025;BME280;47978;49.118;12.146;2023-03-19T19:23:49;97512.88;;;7.79;86.49
62025;BME280;47978;49.118;12.146;2023-03-19T19:27:52;97508.56;;;7.68;87.08
62025;BME280;47978;49.118;12.146;2023-03-19T19:31:57;97520.75;;;7.57;87.60
62025;BME280;47978;49.118;12.146;2023-03-19T19:35:58;97519.47;;;7.44;87.96
62025;BME280;47978;49.118;12.146;2023-03-19T19:40:00;97520.41;;;7.29;88.90
62025;BME280;47978;49.118;12.146;2023-03-19T19:44:01;97517.56;;;7.39;88.11
62025;BME280;47978;49.118;12.146;2023-03-19T19:48:05;97520.28;;;7.44;87.18
62025;BME280;47978;49.118;12.146;2023-03-19T19:52:11;97525.03;;;7.34;87.89
62025;BME280;47978;49.118;12.146;2023-03-19T19:56:13;97531.97;;;7.26;88.28
62025;BME280;47978;49.118;12.146;2023-03-19T20:00:18;97535.75;;;7.40;87.69
62025;BME280;47978;49.118;12.146;2023-03-19T20:04:22;97536.59;;;7.31;87.26
62025;BME280;47978;49.118;12.146;2023-03-19T20:08:24;97544.69;;;7.12;88.16
62025;BME280;47978;49.118;12.146;2023-03-19T20:12:26;97547.72;;;7.05;88.72
62025;BME280;47978;49.118;12.146;2023-03-19T20:16:29;97551.84;;;7.08;87.60
62025;BME280;47978;49.118;12.146;2023-03-19T20:20:32;97551.06;;;7.02;87.82
62025;BME280;47978;49.118;12.146;2023-03-19T20:24:33;97553.63;;;6.83;88.49
62025;BME280;47978;49.118;12.146;2023-03-19T20:28:35;97565.72;;;6.77;88.18
62025;BME280;47978;49.118;12.146;2023-03-19T20:32:36;97553.91;;;6.71;88.04
62025;BME280;47978;49.118;12.146;2023-03-19T20:36:39;97554.22;;;6.60;89.73
62025;BME280;47978;49.118;12.146;2023-03-19T20:40:41;97564.97;;;6.51;89.85
62025;BME280;47978;49.118;12.146;2023-03-19T20:44:44;97569.13;;;6.43;89.62
62025;BME280;47978;49.118;12.146;2023-03-19T20:48:46;97567.19;;;6.49;89.14
62025;BME280;47978;49.118;12.146;2023-03-19T20:52:49;97575.69;;;6.52;89.08
62025;BME280;47978;49.118;12.146;2023-03-19T20:56:51;97583.38;;;6.45;89.64
62025;BME280;47978;49.118;12.146;2023-03-19T21:00:53;97597.06;;;6.71;88.04
62025;BME280;47978;49.118;12.146;2023-03-19T21:04:54;97592.97;;;6.58;89.98
62025;BME280;47978;49.118;12.146;2023-03-19T21:08:57;97593.25;;;6.51;89.29
62025;BME280;47978;49.118;12.146;2023-03-19T21:12:59;97590.25;;;6.48;89.08
62025;BME280;47978;49.118;12.146;2023-03-19T21:17:01;97596.84;;;6.47;88.50
62025;BME280;47978;49.118;12.146;2023-03-19T21:21:02;97594.66;;;6.49;88.73
62025;BME280;47978;49.118;12.146;2023-03-19T21:25:05;97601.22;;;6.43;89.52
62025;BME280;47978;49.118;12.146;2023-03-19T21:29:10;97594.94;;;6.32;90.47
62025;BME280;47978;49.118;12.146;2023-03-19T21:33:17;97596.03;;;6.05;91.50
62025;BME280;47978;49.118;12.146;2023-03-19T21:37:20;97592.47;;;6.05;92.20